Barium Springs, North Carolina
Current Conditions -  °F | °C
As of 3:15 AM on Monday 26 Jan 2015 (Local Time) from KSVH Reporting Station
Clear Clear  
Wind Chill: 36°   Ceiling: Unl
Heat Index: 36°   Visibility: 10mi
Dew Point: 31°   Wind: 0mph
Humidity: 84%   Direction: NA
Pressure: 29.64"   Gusts: NA
Location:  35.72°N, 80.9°W
Report Text: KSVH 260815Z AUTO 00000KT 10SM CLR 02/00 A2964 RMK AO2 T00201005
Loading
Personal Weather Stations






























Interactive Weather Map New forecast layout! Learn more

10-Day Weather Forecast

Advertisements
Track Severe Weather on mobile